KCBF

Council Bluffs Municipal Airport

Council Bluffs, Iowa, USA
METAR KCBF 151315Z AUTO 24008KT 10SM OVC055 M00/M02 A3005 RMK AO2
Observed Flight Rules
Dec-15 @ 13:15 UTC (32 minutes ago) Visual Flight Rules
Wind Visibility Clouds
240° at 8 knots 10 miles
  • Overcast at 5,500' AGL
Temperatures Readings
Current 0°C / 32°F
Dewpoint -2°C / 28°F
Humidity 87%
Altimeter 30.05" Hg
Pressure 1018 hPa
Elevation 382
METAR KCBF 151315Z AUTO 24008KT 10SM OVC055 M00/M02 A3005 RMK AO2
Observed Flight Rules
Dec-15 @ 13:15 UTC
(32 minutes ago)
VFR
Wind Visibility
240° at 8 knots 10 miles
Clouds
  • Overcast at 5,500' AGL
Temperature Dewpoint
0°C / 32°F -2°C / 28°F
Humidity Altimeter Pressure
87% 30.05" Hg 1018 hPa